ニューヨーク/JFK の空港の天気 - METARとTAF

ジョン・F・ケネディ国際空港 ( KJFK / JFK ) - アメリカ ニューヨーク州ニューヨーク
飛行場実況気象(Metar)
観測時間10/14 04:51 EDT (10/14 08:51 UTC)
風向・風速静穏 0m/s
視程10km以上
天気現象
全天の8割程度の雲 雲底高度 1040m
気温14.4℃
湿度97%
気圧1014.9hPa
METARKJFK 140851Z 00000KT 10SM BKN034 14/14 A2997 RMK AO2 SLP149 T01440139 55013
過去の天気等 Google飛行場航空写真 Wunderground天気予報

過去48時間のMETAR

飛行場予報(TAF)
発表時間: 10/14 04:36 EDT (10/14 08:36 UTC)
予報対象時間: 14日5時 EDT ~ 15日8時 EDT
風向・風速南 2m/s
視程10km以上
全天の4割程度の雲 雲底高度 460m
全天の8割程度の雲 雲底高度 760m
14日5時 EDT ~ 14日6時 EDT に一時的に
全天の4割程度の雲 雲底高度 760m
14日11時 EDT から
風向・風速西 3m/s
視程10km以上
全天の4割程度の雲 雲底高度 910m
14日14時 EDT から
風向・風速南西 6m/s
視程10km以上
なし
14日19時 EDT から
風向・風速西 5m/s
視程10km以上
なし
14日22時 EDT から
風向・風速北北西 4m/s
視程10km以上
なし
KJFK 140836Z 1409/1512 19004KT P6SM SCT015 BKN025
TEMPO 1409/1410 SCT025
FM141500 26005KT P6SM SCT030
FM141800 23011KT P6SM SKC
FM142300 26010KT P6SM SKC
FM150200 33008KT P6SM SKC